Portada
METAR-TAF:

METAR-TAF

Aeroports :

Wheaton Municipal Airport

Wheaton, Minnesota, Estats Units d'Amèrica

latitud: 45-42N, longitud: 096-30W, altitud: 313 m

Observació

L'informe es va fer fa 14 minuts, a les 06:13 UTC
Vent 4 kt del Nord/Nord-Oest
Temperatura -4°C
Humitat 80%
Pressió 1022 hPa
Visibilitat: 16.1 km

METAR: KETH 250613Z AUTO 33004KT 10SM M04/M07 A3018 RMK AO2

Hora: 00:27 (06:27 UTC)


TAF: manca

Observacions i pronòstics meteorològics de més de 4000 aeroports (METAR i TAF).

Les estacions disponibles són els punts grocs i vermells al mapa.

Posi el ratolí al punt desitjat per veure el nom de l'estació.

Feu clic per veure les observacions i els pronòstics meteorològics.

Per canviar el mapa: feu clic els botons verds amb una creu de color negre per apropar; al botó verd amb un guió per allunyar la imatge; o en les fletxes verdes per a mapes adjacents.


METAR-TAF: